sensor_id;sensor_type;location;lat;lon;timestamp;P1;durP1;ratioP1;P2;durP2;ratioP2
3523;SDS011;1776;53.330;11.498;2022-10-16T00:00:41;4.57;;;2.80;;
3523;SDS011;1776;53.330;11.498;2022-10-16T00:03:07;2.83;;;2.63;;
3523;SDS011;1776;53.330;11.498;2022-10-16T00:05:37;2.70;;;2.37;;
3523;SDS011;1776;53.330;11.498;2022-10-16T00:08:05;2.60;;;2.40;;
3523;SDS011;1776;53.330;11.498;2022-10-16T00:10:30;3.40;;;2.70;;
3523;SDS011;1776;53.330;11.498;2022-10-16T00:12:55;2.80;;;2.60;;
3523;SDS011;1776;53.330;11.498;2022-10-16T00:15:21;2.63;;;2.50;;
3523;SDS011;1776;53.330;11.498;2022-10-16T00:17:46;2.63;;;2.43;;
3523;SDS011;1776;53.330;11.498;2022-10-16T00:20:11;4.70;;;2.80;;
3523;SDS011;1776;53.330;11.498;2022-10-16T00:22:36;3.50;;;3.07;;
3523;SDS011;1776;53.330;11.498;2022-10-16T00:25:02;3.43;;;3.07;;
3523;SDS011;1776;53.330;11.498;2022-10-16T00:27:27;2.90;;;2.70;;
3523;SDS011;1776;53.330;11.498;2022-10-16T00:29:53;2.83;;;2.63;;
3523;SDS011;1776;53.330;11.498;2022-10-16T00:32:19;2.87;;;2.43;;
3523;SDS011;1776;53.330;11.498;2022-10-16T00:34:45;4.83;;;2.33;;
3523;SDS011;1776;53.330;11.498;2022-10-16T00:37:11;3.33;;;3.13;;
3523;SDS011;1776;53.330;11.498;2022-10-16T00:39:36;3.20;;;2.97;;
3523;SDS011;1776;53.330;11.498;2022-10-16T00:42:02;3.13;;;2.87;;
3523;SDS011;1776;53.330;11.498;2022-10-16T00:44:44;3.67;;;3.10;;
3523;SDS011;1776;53.330;11.498;2022-10-16T00:47:15;3.70;;;3.40;;
3523;SDS011;1776;53.330;11.498;2022-10-16T00:49:55;4.30;;;3.23;;
3523;SDS011;1776;53.330;11.498;2022-10-16T00:52:24;2.97;;;2.77;;
3523;SDS011;1776;53.330;11.498;2022-10-16T00:54:50;3.53;;;3.23;;
3523;SDS011;1776;53.330;11.498;2022-10-16T00:57:18;3.70;;;3.40;;
3523;SDS011;1776;53.330;11.498;2022-10-16T00:59:43;4.67;;;3.37;;
3523;SDS011;1776;53.330;11.498;2022-10-16T01:02:11;4.07;;;3.67;;
3523;SDS011;1776;53.330;11.498;2022-10-16T01:04:42;3.40;;;3.10;;
3523;SDS011;1776;53.330;11.498;2022-10-16T01:07:16;3.60;;;3.30;;
3523;SDS011;1776;53.330;11.498;2022-10-16T01:09:57;3.57;;;3.27;;
3523;SDS011;1776;53.330;11.498;2022-10-16T01:12:40;4.03;;;3.20;;
3523;SDS011;1776;53.330;11.498;2022-10-16T01:15:16;5.20;;;3.83;;
3523;SDS011;1776;53.330;11.498;2022-10-16T01:17:49;4.30;;;3.90;;
3523;SDS011;1776;53.330;11.498;2022-10-16T01:20:24;4.40;;;3.83;;
3523;SDS011;1776;53.330;11.498;2022-10-16T01:23:09;4.30;;;4.00;;
3523;SDS011;1776;53.330;11.498;2022-10-16T01:28:30;4.87;;;4.43;;
3523;SDS011;1776;53.330;11.498;2022-10-16T01:31:02;3.83;;;3.40;;
3523;SDS011;1776;53.330;11.498;2022-10-16T01:33:35;5.47;;;4.20;;
3523;SDS011;1776;53.330;11.498;2022-10-16T01:36:09;5.40;;;4.90;;
3523;SDS011;1776;53.330;11.498;2022-10-16T01:38:38;10.63;;;5.30;;
3523;SDS011;1776;53.330;11.498;2022-10-16T01:41:09;5.43;;;4.53;;
3523;SDS011;1776;53.330;11.498;2022-10-16T01:43:40;6.93;;;3.70;;
3523;SDS011;1776;53.330;11.498;2022-10-16T01:46:11;5.30;;;4.00;;
3523;SDS011;1776;53.330;11.498;2022-10-16T01:48:41;4.33;;;3.93;;
3523;SDS011;1776;53.330;11.498;2022-10-16T01:51:08;4.40;;;3.80;;
3523;SDS011;1776;53.330;11.498;2022-10-16T01:53:36;6.43;;;4.33;;
3523;SDS011;1776;53.330;11.498;2022-10-16T01:56:03;4.60;;;3.73;;
3523;SDS011;1776;53.330;11.498;2022-10-16T01:58:33;5.00;;;4.60;;
3523;SDS011;1776;53.330;11.498;2022-10-16T02:01:03;5.13;;;4.67;;
3523;SDS011;1776;53.330;11.498;2022-10-16T02:03:33;5.30;;;3.80;;
3523;SDS011;1776;53.330;11.498;2022-10-16T02:06:01;4.00;;;3.60;;
3523;SDS011;1776;53.330;11.498;2022-10-16T02:08:27;4.30;;;3.90;;
3523;SDS011;1776;53.330;11.498;2022-10-16T02:10:55;4.33;;;3.93;;
3523;SDS011;1776;53.330;11.498;2022-10-16T02:13:24;4.27;;;3.97;;
3523;SDS011;1776;53.330;11.498;2022-10-16T02:15:54;6.10;;;4.07;;
3523;SDS011;1776;53.330;11.498;2022-10-16T02:18:19;3.60;;;3.10;;
3523;SDS011;1776;53.330;11.498;2022-10-16T02:20:50;3.97;;;3.60;;
3523;SDS011;1776;53.330;11.498;2022-10-16T02:23:24;6.00;;;3.20;;
3523;SDS011;1776;53.330;11.498;2022-10-16T02:25:54;5.67;;;4.23;;
3523;SDS011;1776;53.330;11.498;2022-10-16T02:28:26;4.50;;;3.50;;
3523;SDS011;1776;53.330;11.498;2022-10-16T02:31:03;4.50;;;3.33;;
3523;SDS011;1776;53.330;11.498;2022-10-16T02:33:32;3.50;;;3.20;;
3523;SDS011;1776;53.330;11.498;2022-10-16T02:36:00;4.83;;;3.13;;
3523;SDS011;1776;53.330;11.498;2022-10-16T02:38:25;3.23;;;3.03;;
3523;SDS011;1776;53.330;11.498;2022-10-16T02:40:52;3.90;;;3.60;;
3523;SDS011;1776;53.330;11.498;2022-10-16T02:43:17;3.10;;;2.90;;
3523;SDS011;1776;53.330;11.498;2022-10-16T02:45:44;4.30;;;3.90;;
3523;SDS011;1776;53.330;11.498;2022-10-16T02:48:09;3.93;;;3.50;;
3523;SDS011;1776;53.330;11.498;2022-10-16T02:50:34;3.70;;;3.33;;
3523;SDS011;1776;53.330;11.498;2022-10-16T02:53:00;10.00;;;3.90;;
3523;SDS011;1776;53.330;11.498;2022-10-16T02:55:26;3.50;;;2.60;;
3523;SDS011;1776;53.330;11.498;2022-10-16T02:57:52;3.60;;;3.30;;
3523;SDS011;1776;53.330;11.498;2022-10-16T03:00:19;3.33;;;3.03;;
3523;SDS011;1776;53.330;11.498;2022-10-16T03:02:45;3.50;;;3.13;;
3523;SDS011;1776;53.330;11.498;2022-10-16T03:05:11;4.03;;;2.93;;
3523;SDS011;1776;53.330;11.498;2022-10-16T03:07:37;5.50;;;3.10;;
3523;SDS011;1776;53.330;11.498;2022-10-16T03:10:02;4.83;;;3.13;;
3523;SDS011;1776;53.330;11.498;2022-10-16T03:12:28;3.67;;;2.83;;
3523;SDS011;1776;53.330;11.498;2022-10-16T03:14:54;5.50;;;3.10;;
3523;SDS011;1776;53.330;11.498;2022-10-16T03:17:21;4.63;;;2.63;;
3523;SDS011;1776;53.330;11.498;2022-10-16T03:19:47;3.30;;;2.50;;
3523;SDS011;1776;53.330;11.498;2022-10-16T03:22:12;5.60;;;2.83;;
3523;SDS011;1776;53.330;11.498;2022-10-16T03:24:37;3.97;;;2.80;;
3523;SDS011;1776;53.330;11.498;2022-10-16T03:27:03;4.77;;;3.33;;
3523;SDS011;1776;53.330;11.498;2022-10-16T03:29:28;4.27;;;3.87;;
3523;SDS011;1776;53.330;11.498;2022-10-16T03:31:54;5.17;;;2.20;;
3523;SDS011;1776;53.330;11.498;2022-10-16T03:34:20;3.33;;;2.40;;
3523;SDS011;1776;53.330;11.498;2022-10-16T03:36:45;2.50;;;1.80;;
3523;SDS011;1776;53.330;11.498;2022-10-16T03:39:11;2.60;;;2.00;;
3523;SDS011;1776;53.330;11.498;2022-10-16T03:41:36;3.27;;;2.27;;
3523;SDS011;1776;53.330;11.498;2022-10-16T03:44:01;2.93;;;2.47;;
3523;SDS011;1776;53.330;11.498;2022-10-16T03:46:27;3.00;;;2.30;;
3523;SDS011;1776;53.330;11.498;2022-10-16T03:48:52;2.90;;;2.10;;
3523;SDS011;1776;53.330;11.498;2022-10-16T03:51:17;3.77;;;2.53;;
3523;SDS011;1776;53.330;11.498;2022-10-16T03:53:42;2.30;;;2.10;;
3523;SDS011;1776;53.330;11.498;2022-10-16T03:56:08;3.93;;;1.90;;
3523;SDS011;1776;53.330;11.498;2022-10-16T03:58:33;2.07;;;1.90;;
3523;SDS011;1776;53.330;11.498;2022-10-16T04:00:58;2.93;;;2.20;;
3523;SDS011;1776;53.330;11.498;2022-10-16T04:03:23;3.50;;;1.93;;
3523;SDS011;1776;53.330;11.498;2022-10-16T04:05:49;2.27;;;2.10;;
3523;SDS011;1776;53.330;11.498;2022-10-16T04:08:15;5.17;;;2.37;;
3523;SDS011;1776;53.330;11.498;2022-10-16T04:10:42;4.77;;;2.17;;
3523;SDS011;1776;53.330;11.498;2022-10-16T04:13:08;2.60;;;1.70;;
3523;SDS011;1776;53.330;11.498;2022-10-16T04:15:33;2.10;;;2.00;;
3523;SDS011;1776;53.330;11.498;2022-10-16T04:17:58;2.63;;;1.93;;
3523;SDS011;1776;53.330;11.498;2022-10-16T04:20:23;2.93;;;2.47;;
3523;SDS011;1776;53.330;11.498;2022-10-16T04:22:49;3.77;;;2.33;;
3523;SDS011;1776;53.330;11.498;2022-10-16T04:25:14;4.30;;;1.77;;
3523;SDS011;1776;53.330;11.498;2022-10-16T04:27:39;3.00;;;1.50;;
3523;SDS011;1776;53.330;11.498;2022-10-16T04:30:04;2.30;;;2.07;;
3523;SDS011;1776;53.330;11.498;2022-10-16T04:32:30;5.33;;;2.10;;
3523;SDS011;1776;53.330;11.498;2022-10-16T04:34:55;12.03;;;2.23;;
3523;SDS011;1776;53.330;11.498;2022-10-16T04:37:24;1.83;;;1.73;;
3523;SDS011;1776;53.330;11.498;2022-10-16T04:39:51;1.93;;;1.70;;
3523;SDS011;1776;53.330;11.498;2022-10-16T04:42:16;1.87;;;1.60;;
3523;SDS011;1776;53.330;11.498;2022-10-16T04:44:41;2.10;;;1.93;;
3523;SDS011;1776;53.330;11.498;2022-10-16T04:47:07;2.67;;;1.60;;
3523;SDS011;1776;53.330;11.498;2022-10-16T04:49:32;2.37;;;1.80;;
3523;SDS011;1776;53.330;11.498;2022-10-16T04:51:58;2.70;;;1.60;;
3523;SDS011;1776;53.330;11.498;2022-10-16T04:54:23;2.47;;;1.60;;
3523;SDS011;1776;53.330;11.498;2022-10-16T04:56:48;3.70;;;1.70;;
3523;SDS011;1776;53.330;11.498;2022-10-16T04:59:15;2.17;;;1.97;;
3523;SDS011;1776;53.330;11.498;2022-10-16T05:01:42;2.80;;;1.53;;
3523;SDS011;1776;53.330;11.498;2022-10-16T05:04:07;2.13;;;1.53;;
3523;SDS011;1776;53.330;11.498;2022-10-16T05:06:33;4.40;;;2.93;;
3523;SDS011;1776;53.330;11.498;2022-10-16T05:08:58;3.47;;;2.33;;
3523;SDS011;1776;53.330;11.498;2022-10-16T05:11:23;3.33;;;1.83;;
3523;SDS011;1776;53.330;11.498;2022-10-16T05:13:48;1.73;;;1.43;;
3523;SDS011;1776;53.330;11.498;2022-10-16T05:16:14;4.70;;;2.07;;
3523;SDS011;1776;53.330;11.498;2022-10-16T05:18:39;4.83;;;1.30;;
3523;SDS011;1776;53.330;11.498;2022-10-16T05:21:05;4.50;;;1.90;;
3523;SDS011;1776;53.330;11.498;2022-10-16T05:23:30;1.47;;;1.37;;
3523;SDS011;1776;53.330;11.498;2022-10-16T05:25:56;3.23;;;1.73;;
3523;SDS011;1776;53.330;11.498;2022-10-16T05:28:23;1.80;;;1.70;;
3523;SDS011;1776;53.330;11.498;2022-10-16T05:30:49;5.83;;;1.63;;
3523;SDS011;1776;53.330;11.498;2022-10-16T05:33:15;2.50;;;1.93;;
3523;SDS011;1776;53.330;11.498;2022-10-16T05:35:40;3.27;;;2.33;;
3523;SDS011;1776;53.330;11.498;2022-10-16T05:38:05;2.57;;;2.00;;
3523;SDS011;1776;53.330;11.498;2022-10-16T05:40:30;2.30;;;2.10;;
3523;SDS011;1776;53.330;11.498;2022-10-16T05:42:56;2.97;;;2.30;;
3523;SDS011;1776;53.330;11.498;2022-10-16T05:45:21;2.43;;;2.23;;
3523;SDS011;1776;53.330;11.498;2022-10-16T05:47:46;3.60;;;2.20;;
3523;SDS011;1776;53.330;11.498;2022-10-16T05:50:11;6.07;;;3.33;;
3523;SDS011;1776;53.330;11.498;2022-10-16T05:52:37;2.30;;;2.20;;
3523;SDS011;1776;53.330;11.498;2022-10-16T05:55:02;2.20;;;2.00;;
3523;SDS011;1776;53.330;11.498;2022-10-16T05:57:28;4.00;;;2.90;;
3523;SDS011;1776;53.330;11.498;2022-10-16T05:59:53;9.23;;;3.43;;
3523;SDS011;1776;53.330;11.498;2022-10-16T06:02:19;5.77;;;3.07;;
3523;SDS011;1776;53.330;11.498;2022-10-16T06:04:44;6.00;;;3.60;;
3523;SDS011;1776;53.330;11.498;2022-10-16T06:07:09;8.50;;;4.20;;
3523;SDS011;1776;53.330;11.498;2022-10-16T06:09:34;8.07;;;5.00;;
3523;SDS011;1776;53.330;11.498;2022-10-16T06:12:00;8.30;;;5.63;;
3523;SDS011;1776;53.330;11.498;2022-10-16T06:14:25;6.40;;;4.60;;
3523;SDS011;1776;53.330;11.498;2022-10-16T06:16:50;7.60;;;4.50;;
3523;SDS011;1776;53.330;11.498;2022-10-16T06:19:16;5.37;;;4.87;;
3523;SDS011;1776;53.330;11.498;2022-10-16T06:21:42;4.80;;;3.10;;
3523;SDS011;1776;53.330;11.498;2022-10-16T06:24:08;2.67;;;2.47;;
3523;SDS011;1776;53.330;11.498;2022-10-16T06:26:33;9.17;;;2.93;;
3523;SDS011;1776;53.330;11.498;2022-10-16T06:28:58;3.30;;;3.00;;
3523;SDS011;1776;53.330;11.498;2022-10-16T06:31:25;3.93;;;3.53;;
3523;SDS011;1776;53.330;11.498;2022-10-16T06:33:53;10.60;;;3.70;;
3523;SDS011;1776;53.330;11.498;2022-10-16T06:36:18;7.23;;;5.53;;
3523;SDS011;1776;53.330;11.498;2022-10-16T06:38:44;9.43;;;7.13;;
3523;SDS011;1776;53.330;11.498;2022-10-16T06:41:14;11.00;;;7.93;;
3523;SDS011;1776;53.330;11.498;2022-10-16T06:43:42;11.20;;;6.53;;
3523;SDS011;1776;53.330;11.498;2022-10-16T06:46:07;4.07;;;3.67;;
3523;SDS011;1776;53.330;11.498;2022-10-16T06:48:35;5.43;;;4.30;;
3523;SDS011;1776;53.330;11.498;2022-10-16T06:51:04;3.47;;;3.17;;
3523;SDS011;1776;53.330;11.498;2022-10-16T06:53:32;2.70;;;2.47;;
3523;SDS011;1776;53.330;11.498;2022-10-16T06:56:08;5.60;;;3.03;;
3523;SDS011;1776;53.330;11.498;2022-10-16T06:58:35;10.93;;;8.90;;
3523;SDS011;1776;53.330;11.498;2022-10-16T07:01:01;9.87;;;7.37;;
3523;SDS011;1776;53.330;11.498;2022-10-16T07:03:26;8.03;;;5.90;;
3523;SDS011;1776;53.330;11.498;2022-10-16T07:05:52;6.37;;;4.30;;
3523;SDS011;1776;53.330;11.498;2022-10-16T07:08:17;4.97;;;3.40;;
3523;SDS011;1776;53.330;11.498;2022-10-16T07:10:42;6.50;;;3.70;;
3523;SDS011;1776;53.330;11.498;2022-10-16T07:13:07;2.93;;;2.60;;
3523;SDS011;1776;53.330;11.498;2022-10-16T07:15:33;3.80;;;2.43;;
3523;SDS011;1776;53.330;11.498;2022-10-16T07:17:59;8.90;;;3.10;;
3523;SDS011;1776;53.330;11.498;2022-10-16T07:20:24;3.47;;;2.90;;
3523;SDS011;1776;53.330;11.498;2022-10-16T07:22:49;5.77;;;3.10;;
3523;SDS011;1776;53.330;11.498;2022-10-16T07:25:15;6.63;;;3.40;;
3523;SDS011;1776;53.330;11.498;2022-10-16T07:27:40;3.57;;;2.87;;
3523;SDS011;1776;53.330;11.498;2022-10-16T07:30:06;7.50;;;3.37;;
3523;SDS011;1776;53.330;11.498;2022-10-16T07:32:31;2.90;;;2.60;;
3523;SDS011;1776;53.330;11.498;2022-10-16T07:34:57;5.70;;;3.10;;
3523;SDS011;1776;53.330;11.498;2022-10-16T07:37:22;8.60;;;2.90;;
3523;SDS011;1776;53.330;11.498;2022-10-16T07:39:47;6.63;;;3.10;;
3523;SDS011;1776;53.330;11.498;2022-10-16T07:42:13;5.47;;;2.80;;
3523;SDS011;1776;53.330;11.498;2022-10-16T07:44:38;4.70;;;3.03;;
3523;SDS011;1776;53.330;11.498;2022-10-16T07:47:03;5.60;;;3.20;;
3523;SDS011;1776;53.330;11.498;2022-10-16T07:49:29;3.10;;;2.80;;
3523;SDS011;1776;53.330;11.498;2022-10-16T07:51:54;3.40;;;3.10;;
3523;SDS011;1776;53.330;11.498;2022-10-16T07:54:19;2.93;;;2.33;;
3523;SDS011;1776;53.330;11.498;2022-10-16T07:56:44;5.60;;;2.93;;
3523;SDS011;1776;53.330;11.498;2022-10-16T07:59:10;4.70;;;2.60;;
3523;SDS011;1776;53.330;11.498;2022-10-16T08:01:35;5.07;;;2.93;;
3523;SDS011;1776;53.330;11.498;2022-10-16T08:04:01;6.87;;;2.60;;
3523;SDS011;1776;53.330;11.498;2022-10-16T08:06:26;6.53;;;3.50;;
3523;SDS011;1776;53.330;11.498;2022-10-16T08:08:51;3.77;;;2.47;;
3523;SDS011;1776;53.330;11.498;2022-10-16T08:11:17;4.40;;;3.30;;
3523;SDS011;1776;53.330;11.498;2022-10-16T08:13:42;7.73;;;2.63;;
3523;SDS011;1776;53.330;11.498;2022-10-16T08:16:07;6.30;;;3.20;;
3523;SDS011;1776;53.330;11.498;2022-10-16T08:18:35;7.40;;;2.70;;
3523;SDS011;1776;53.330;11.498;2022-10-16T08:21:01;2.80;;;2.47;;
3523;SDS011;1776;53.330;11.498;2022-10-16T08:23:27;4.00;;;2.27;;
3523;SDS011;1776;53.330;11.498;2022-10-16T08:25:53;2.37;;;2.17;;
3523;SDS011;1776;53.330;11.498;2022-10-16T08:28:19;6.03;;;2.67;;
3523;SDS011;1776;53.330;11.498;2022-10-16T08:30:44;6.17;;;2.37;;
3523;SDS011;1776;53.330;11.498;2022-10-16T08:33:10;7.60;;;2.20;;
3523;SDS011;1776;53.330;11.498;2022-10-16T08:35:36;3.40;;;2.53;;
3523;SDS011;1776;53.330;11.498;2022-10-16T08:38:04;5.10;;;3.00;;
3523;SDS011;1776;53.330;11.498;2022-10-16T08:40:31;4.70;;;3.00;;
3523;SDS011;1776;53.330;11.498;2022-10-16T08:48:51;4.37;;;2.30;;
3523;SDS011;1776;53.330;11.498;2022-10-16T08:51:21;4.03;;;1.97;;
3523;SDS011;1776;53.330;11.498;2022-10-16T08:53:49;2.80;;;2.47;;
3523;SDS011;1776;53.330;11.498;2022-10-16T08:56:18;5.47;;;2.83;;
3523;SDS011;1776;53.330;11.498;2022-10-16T08:58:45;2.40;;;2.20;;
3523;SDS011;1776;53.330;11.498;2022-10-16T09:01:12;4.50;;;2.60;;
3523;SDS011;1776;53.330;11.498;2022-10-16T09:06:31;3.90;;;2.53;;
3523;SDS011;1776;53.330;11.498;2022-10-16T09:20:47;3.67;;;2.00;;
3523;SDS011;1776;53.330;11.498;2022-10-16T09:23:27;4.33;;;2.33;;
3523;SDS011;1776;53.330;11.498;2022-10-16T09:25:54;3.57;;;2.13;;
3523;SDS011;1776;53.330;11.498;2022-10-16T09:28:22;5.97;;;1.77;;
3523;SDS011;1776;53.330;11.498;2022-10-16T09:30:47;2.17;;;1.57;;
3523;SDS011;1776;53.330;11.498;2022-10-16T09:33:14;3.33;;;2.80;;
3523;SDS011;1776;53.330;11.498;2022-10-16T09:35:42;2.70;;;1.50;;
3523;SDS011;1776;53.330;11.498;2022-10-16T09:38:20;3.00;;;1.77;;
3523;SDS011;1776;53.330;11.498;2022-10-16T09:40:54;1.60;;;1.50;;
3523;SDS011;1776;53.330;11.498;2022-10-16T09:48:39;3.67;;;1.50;;
3523;SDS011;1776;53.330;11.498;2022-10-16T09:51:19;2.67;;;1.20;;
3523;SDS011;1776;53.330;11.498;2022-10-16T09:53:47;2.20;;;1.33;;
3523;SDS011;1776;53.330;11.498;2022-10-16T09:56:20;2.57;;;1.43;;
3523;SDS011;1776;53.330;11.498;2022-10-16T09:58:51;1.20;;;1.10;;
3523;SDS011;1776;53.330;11.498;2022-10-16T10:01:19;1.77;;;1.43;;
3523;SDS011;1776;53.330;11.498;2022-10-16T10:03:45;1.77;;;1.67;;
3523;SDS011;1776;53.330;11.498;2022-10-16T10:06:20;1.10;;;1.00;;
3523;SDS011;1776;53.330;11.498;2022-10-16T10:11:38;1.30;;;1.07;;
3523;SDS011;1776;53.330;11.498;2022-10-16T10:14:05;3.23;;;1.50;;
3523;SDS011;1776;53.330;11.498;2022-10-16T10:16:38;2.40;;;1.50;;
3523;SDS011;1776;53.330;11.498;2022-10-16T10:19:04;1.53;;;1.20;;
3523;SDS011;1776;53.330;11.498;2022-10-16T10:21:32;2.30;;;1.10;;
3523;SDS011;1776;53.330;11.498;2022-10-16T10:23:57;1.90;;;1.23;;
3523;SDS011;1776;53.330;11.498;2022-10-16T10:26:27;2.07;;;1.30;;
3523;SDS011;1776;53.330;11.498;2022-10-16T10:29:11;1.90;;;1.13;;
3523;SDS011;1776;53.330;11.498;2022-10-16T10:32:01;4.17;;;1.00;;
3523;SDS011;1776;53.330;11.498;2022-10-16T10:40:11;2.00;;;1.10;;
3523;SDS011;1776;53.330;11.498;2022-10-16T10:42:57;2.33;;;1.00;;
3523;SDS011;1776;53.330;11.498;2022-10-16T10:45:46;1.53;;;0.87;;
3523;SDS011;1776;53.330;11.498;2022-10-16T11:07:14;0.87;;;0.80;;
3523;SDS011;1776;53.330;11.498;2022-10-16T11:09:53;2.87;;;0.80;;
3523;SDS011;1776;53.330;11.498;2022-10-16T11:12:47;1.63;;;0.93;;
3523;SDS011;1776;53.330;11.498;2022-10-16T11:15:19;3.37;;;1.27;;
3523;SDS011;1776;53.330;11.498;2022-10-16T11:17:53;2.03;;;1.00;;
3523;SDS011;1776;53.330;11.498;2022-10-16T11:20:26;1.67;;;0.80;;
3523;SDS011;1776;53.330;11.498;2022-10-16T11:23:15;1.47;;;1.37;;
3523;SDS011;1776;53.330;11.498;2022-10-16T11:25:47;1.00;;;0.90;;
3523;SDS011;1776;53.330;11.498;2022-10-16T11:36:39;2.00;;;0.90;;
3523;SDS011;1776;53.330;11.498;2022-10-16T11:39:26;2.57;;;0.90;;
3523;SDS011;1776;53.330;11.498;2022-10-16T11:41:54;2.13;;;1.00;;
3523;SDS011;1776;53.330;11.498;2022-10-16T11:50:02;1.00;;;0.83;;
3523;SDS011;1776;53.330;11.498;2022-10-16T11:55:47;1.63;;;0.80;;
3523;SDS011;1776;53.330;11.498;2022-10-16T11:58:21;1.87;;;1.07;;
3523;SDS011;1776;53.330;11.498;2022-10-16T12:03:42;2.07;;;0.70;;
3523;SDS011;1776;53.330;11.498;2022-10-16T12:06:25;4.40;;;1.47;;
3523;SDS011;1776;53.330;11.498;2022-10-16T12:08:57;3.27;;;1.00;;
3523;SDS011;1776;53.330;11.498;2022-10-16T12:16:50;2.20;;;0.83;;
3523;SDS011;1776;53.330;11.498;2022-10-16T12:19:17;1.90;;;0.90;;
3523;SDS011;1776;53.330;11.498;2022-10-16T12:21:43;1.63;;;0.90;;
3523;SDS011;1776;53.330;11.498;2022-10-16T12:26:59;2.60;;;1.00;;
3523;SDS011;1776;53.330;11.498;2022-10-16T12:32:03;1.37;;;1.07;;
3523;SDS011;1776;53.330;11.498;2022-10-16T12:34:40;2.63;;;2.07;;
3523;SDS011;1776;53.330;11.498;2022-10-16T12:37:50;1.60;;;0.90;;
3523;SDS011;1776;53.330;11.498;2022-10-16T12:40:10;2.17;;;1.20;;
3523;SDS011;1776;53.330;11.498;2022-10-16T12:42:38;2.37;;;1.10;;
3523;SDS011;1776;53.330;11.498;2022-10-16T12:48:00;2.80;;;1.00;;
3523;SDS011;1776;53.330;11.498;2022-10-16T12:50:32;5.30;;;1.03;;
3523;SDS011;1776;53.330;11.498;2022-10-16T12:53:00;0.93;;;0.70;;
3523;SDS011;1776;53.330;11.498;2022-10-16T12:55:27;1.60;;;0.90;;
3523;SDS011;1776;53.330;11.498;2022-10-16T13:00:57;9.40;;;1.47;;
3523;SDS011;1776;53.330;11.498;2022-10-16T13:08:55;2.00;;;1.00;;
3523;SDS011;1776;53.330;11.498;2022-10-16T13:16:25;1.70;;;0.97;;
3523;SDS011;1776;53.330;11.498;2022-10-16T13:19:16;1.10;;;0.80;;
3523;SDS011;1776;53.330;11.498;2022-10-16T13:21:53;2.80;;;0.80;;
3523;SDS011;1776;53.330;11.498;2022-10-16T13:24:42;1.27;;;0.93;;
3523;SDS011;1776;53.330;11.498;2022-10-16T13:30:18;1.83;;;0.90;;
3523;SDS011;1776;53.330;11.498;2022-10-16T13:32:47;1.80;;;1.03;;
3523;SDS011;1776;53.330;11.498;2022-10-16T13:35:18;1.53;;;0.80;;
3523;SDS011;1776;53.330;11.498;2022-10-16T13:37:45;1.03;;;0.90;;
3523;SDS011;1776;53.330;11.498;2022-10-16T13:40:23;5.63;;;1.37;;
3523;SDS011;1776;53.330;11.498;2022-10-16T13:42:50;4.93;;;1.07;;
3523;SDS011;1776;53.330;11.498;2022-10-16T13:45:18;1.57;;;0.97;;
3523;SDS011;1776;53.330;11.498;2022-10-16T13:47:48;4.70;;;1.20;;
3523;SDS011;1776;53.330;11.498;2022-10-16T13:50:14;2.30;;;1.10;;
3523;SDS011;1776;53.330;11.498;2022-10-16T13:52:42;0.97;;;0.87;;
3523;SDS011;1776;53.330;11.498;2022-10-16T13:55:11;1.50;;;0.90;;
3523;SDS011;1776;53.330;11.498;2022-10-16T13:57:38;2.63;;;1.20;;
3523;SDS011;1776;53.330;11.498;2022-10-16T14:00:16;3.63;;;1.40;;
3523;SDS011;1776;53.330;11.498;2022-10-16T14:02:43;1.97;;;0.80;;
3523;SDS011;1776;53.330;11.498;2022-10-16T14:05:09;2.50;;;1.10;;
3523;SDS011;1776;53.330;11.498;2022-10-16T14:07:35;2.47;;;0.90;;
3523;SDS011;1776;53.330;11.498;2022-10-16T14:10:04;2.53;;;1.13;;
3523;SDS011;1776;53.330;11.498;2022-10-16T14:12:31;1.17;;;0.90;;
3523;SDS011;1776;53.330;11.498;2022-10-16T14:14:57;1.73;;;0.90;;
3523;SDS011;1776;53.330;11.498;2022-10-16T14:17:28;5.50;;;1.13;;
3523;SDS011;1776;53.330;11.498;2022-10-16T14:19:57;4.50;;;1.57;;
3523;SDS011;1776;53.330;11.498;2022-10-16T14:25:39;2.30;;;1.10;;
3523;SDS011;1776;53.330;11.498;2022-10-16T14:30:34;3.90;;;1.00;;
3523;SDS011;1776;53.330;11.498;2022-10-16T14:35:29;1.70;;;0.90;;
3523;SDS011;1776;53.330;11.498;2022-10-16T14:38:00;2.20;;;0.90;;
3523;SDS011;1776;53.330;11.498;2022-10-16T14:40:28;2.50;;;1.20;;
3523;SDS011;1776;53.330;11.498;2022-10-16T14:42:55;1.73;;;1.07;;
3523;SDS011;1776;53.330;11.498;2022-10-16T14:45:22;7.53;;;1.50;;
3523;SDS011;1776;53.330;11.498;2022-10-16T14:47:55;1.60;;;0.80;;
3523;SDS011;1776;53.330;11.498;2022-10-16T14:50:23;1.10;;;1.00;;
3523;SDS011;1776;53.330;11.498;2022-10-16T14:52:49;2.07;;;1.40;;
3523;SDS011;1776;53.330;11.498;2022-10-16T14:55:14;3.13;;;1.20;;
3523;SDS011;1776;53.330;11.498;2022-10-16T14:57:40;2.73;;;1.60;;
3523;SDS011;1776;53.330;11.498;2022-10-16T15:00:09;0.93;;;0.93;;
3523;SDS011;1776;53.330;11.498;2022-10-16T15:02:40;3.23;;;1.37;;
3523;SDS011;1776;53.330;11.498;2022-10-16T15:05:11;2.17;;;1.17;;
3523;SDS011;1776;53.330;11.498;2022-10-16T15:07:41;2.17;;;1.60;;
3523;SDS011;1776;53.330;11.498;2022-10-16T15:10:07;3.83;;;1.07;;
3523;SDS011;1776;53.330;11.498;2022-10-16T15:12:32;1.60;;;1.47;;
3523;SDS011;1776;53.330;11.498;2022-10-16T15:14:58;1.33;;;1.10;;
3523;SDS011;1776;53.330;11.498;2022-10-16T15:17:23;2.00;;;1.23;;
3523;SDS011;1776;53.330;11.498;2022-10-16T15:19:48;2.53;;;1.30;;
3523;SDS011;1776;53.330;11.498;2022-10-16T15:22:14;5.30;;;1.57;;
3523;SDS011;1776;53.330;11.498;2022-10-16T15:24:39;1.67;;;1.17;;
3523;SDS011;1776;53.330;11.498;2022-10-16T15:27:04;5.30;;;1.20;;
3523;SDS011;1776;53.330;11.498;2022-10-16T15:29:30;4.20;;;1.30;;
3523;SDS011;1776;53.330;11.498;2022-10-16T15:31:55;1.30;;;1.00;;
3523;SDS011;1776;53.330;11.498;2022-10-16T15:34:21;6.50;;;1.47;;
3523;SDS011;1776;53.330;11.498;2022-10-16T15:36:46;3.23;;;1.40;;
3523;SDS011;1776;53.330;11.498;2022-10-16T15:39:12;3.37;;;1.20;;
3523;SDS011;1776;53.330;11.498;2022-10-16T15:41:39;5.33;;;1.53;;
3523;SDS011;1776;53.330;11.498;2022-10-16T15:44:05;3.00;;;1.30;;
3523;SDS011;1776;53.330;11.498;2022-10-16T15:46:30;2.83;;;1.47;;
3523;SDS011;1776;53.330;11.498;2022-10-16T15:48:56;5.40;;;1.40;;
3523;SDS011;1776;53.330;11.498;2022-10-16T15:51:23;4.03;;;1.30;;
3523;SDS011;1776;53.330;11.498;2022-10-16T15:53:50;2.40;;;0.90;;
3523;SDS011;1776;53.330;11.498;2022-10-16T15:56:16;4.03;;;1.60;;
3523;SDS011;1776;53.330;11.498;2022-10-16T15:58:42;6.70;;;1.30;;
3523;SDS011;1776;53.330;11.498;2022-10-16T16:01:08;3.50;;;1.47;;
3523;SDS011;1776;53.330;11.498;2022-10-16T16:03:37;3.63;;;1.97;;
3523;SDS011;1776;53.330;11.498;2022-10-16T16:06:06;3.97;;;1.63;;
3523;SDS011;1776;53.330;11.498;2022-10-16T16:08:33;1.97;;;1.37;;
3523;SDS011;1776;53.330;11.498;2022-10-16T16:10:59;6.10;;;1.87;;
3523;SDS011;1776;53.330;11.498;2022-10-16T16:13:29;4.27;;;1.83;;
3523;SDS011;1776;53.330;11.498;2022-10-16T16:15:55;6.17;;;2.50;;
3523;SDS011;1776;53.330;11.498;2022-10-16T16:18:20;3.53;;;1.83;;
3523;SDS011;1776;53.330;11.498;2022-10-16T16:20:45;2.40;;;1.60;;
3523;SDS011;1776;53.330;11.498;2022-10-16T16:23:11;2.90;;;1.70;;
3523;SDS011;1776;53.330;11.498;2022-10-16T16:25:36;5.53;;;1.83;;
3523;SDS011;1776;53.330;11.498;2022-10-16T16:28:02;2.80;;;1.67;;
3523;SDS011;1776;53.330;11.498;2022-10-16T16:30:27;8.30;;;2.63;;
3523;SDS011;1776;53.330;11.498;2022-10-16T16:32:52;2.07;;;1.67;;
3523;SDS011;1776;53.330;11.498;2022-10-16T16:35:17;4.77;;;2.20;;
3523;SDS011;1776;53.330;11.498;2022-10-16T16:37:43;3.57;;;2.00;;
3523;SDS011;1776;53.330;11.498;2022-10-16T16:40:08;4.93;;;2.60;;
3523;SDS011;1776;53.330;11.498;2022-10-16T16:42:33;2.83;;;2.20;;
3523;SDS011;1776;53.330;11.498;2022-10-16T16:44:59;5.33;;;3.90;;
3523;SDS011;1776;53.330;11.498;2022-10-16T16:47:24;9.87;;;6.60;;
3523;SDS011;1776;53.330;11.498;2022-10-16T16:49:50;10.70;;;8.40;;
3523;SDS011;1776;53.330;11.498;2022-10-16T16:52:16;14.47;;;10.77;;
3523;SDS011;1776;53.330;11.498;2022-10-16T16:54:42;12.53;;;9.03;;
3523;SDS011;1776;53.330;11.498;2022-10-16T16:57:09;8.27;;;7.47;;
3523;SDS011;1776;53.330;11.498;2022-10-16T16:59:34;9.20;;;6.80;;